カラカス の空港の天気 - METARとTAF

シモン・ボリバー空港(バルガス) ( SVMI / CCS ) - ベネズエラ バルガス州、Maiquetia (カラカス近郊)
飛行場実況気象(Metar)
観測時間02/17 18:00 VET (02/17 22:00 UTC)
風向・風速東 1m/s
視程10km以上
天気現象
全天の8割程度の雲 雲底高度 490m
気温26℃
湿度79%
気圧1012hPa
METARSVMI 172200Z 09002KT 9999 BKN016 26/22 Q1012
過去の天気等 Google飛行場航空写真 Wunderground天気予報

過去48時間のMETAR

飛行場予報(TAF)
発表時間: 2/17 12:00 VET (2/17 16:00 UTC)
予報対象時間: 17日14時 VET ~ 18日14時 VET
風向・風速東 5m/s
視程10km以上
少しの雲 雲底高度 490m
全天の8割程度の雲 雲底高度 9140m
17日14時 VET ~ 17日18時 VET に徐々に
風向・風速東北東 6m/s
全天の4割程度の雲 雲底高度 490m
TAF SVMI 171600Z 1718/1818 09010KT 9999 FEW016 BKN300 TX30/18Z TN20/07Z
BECMG 1718/1722 07012KT SCT016